sensor_id;sensor_type;location;lat;lon;timestamp;P1;durP1;ratioP1;P2;durP2;ratioP2
49223;SDS011;35050;51.316;5.994;2023-08-01T00:01:28;0.60;;;0.57;;
49223;SDS011;35050;51.316;5.994;2023-08-01T00:03:54;3.63;;;0.60;;
49223;SDS011;35050;51.316;5.994;2023-08-01T00:06:20;1.33;;;0.47;;
49223;SDS011;35050;51.316;5.994;2023-08-01T00:08:47;0.40;;;0.40;;
49223;SDS011;35050;51.316;5.994;2023-08-01T00:11:13;0.32;;;0.30;;
49223;SDS011;35050;51.316;5.994;2023-08-01T00:13:39;0.30;;;0.30;;
49223;SDS011;35050;51.316;5.994;2023-08-01T00:16:05;0.90;;;0.47;;
49223;SDS011;35050;51.316;5.994;2023-08-01T00:18:31;0.40;;;0.40;;
49223;SDS011;35050;51.316;5.994;2023-08-01T00:20:57;0.40;;;0.40;;
49223;SDS011;35050;51.316;5.994;2023-08-01T00:23:23;1.17;;;0.70;;
49223;SDS011;35050;51.316;5.994;2023-08-01T00:25:49;0.70;;;0.70;;
49223;SDS011;35050;51.316;5.994;2023-08-01T00:28:17;0.57;;;0.40;;
49223;SDS011;35050;51.316;5.994;2023-08-01T00:30:43;0.63;;;0.63;;
49223;SDS011;35050;51.316;5.994;2023-08-01T00:33:09;0.70;;;0.40;;
49223;SDS011;35050;51.316;5.994;2023-08-01T00:35:34;0.63;;;0.63;;
49223;SDS011;35050;51.316;5.994;2023-08-01T00:38:00;0.70;;;0.70;;
49223;SDS011;35050;51.316;5.994;2023-08-01T00:40:32;0.40;;;0.40;;
49223;SDS011;35050;51.316;5.994;2023-08-01T00:45:25;1.00;;;1.00;;
49223;SDS011;35050;51.316;5.994;2023-08-01T00:47:51;1.67;;;1.20;;
49223;SDS011;35050;51.316;5.994;2023-08-01T00:50:18;1.10;;;1.00;;
49223;SDS011;35050;51.316;5.994;2023-08-01T00:52:47;1.63;;;1.52;;
49223;SDS011;35050;51.316;5.994;2023-08-01T00:55:15;1.42;;;1.33;;
49223;SDS011;35050;51.316;5.994;2023-08-01T00:57:41;1.90;;;1.80;;
49223;SDS011;35050;51.316;5.994;2023-08-01T01:00:07;1.85;;;1.75;;
49223;SDS011;35050;51.316;5.994;2023-08-01T01:02:33;1.83;;;1.63;;
49223;SDS011;35050;51.316;5.994;2023-08-01T01:05:00;1.67;;;1.58;;
49223;SDS011;35050;51.316;5.994;2023-08-01T01:07:26;1.58;;;1.48;;
49223;SDS011;35050;51.316;5.994;2023-08-01T01:09:52;1.50;;;1.40;;
49223;SDS011;35050;51.316;5.994;2023-08-01T01:12:18;1.92;;;1.80;;
49223;SDS011;35050;51.316;5.994;2023-08-01T01:14:44;2.47;;;1.20;;
49223;SDS011;35050;51.316;5.994;2023-08-01T01:17:09;1.52;;;1.40;;
49223;SDS011;35050;51.316;5.994;2023-08-01T01:19:35;1.40;;;1.30;;
49223;SDS011;35050;51.316;5.994;2023-08-01T01:22:01;1.15;;;1.10;;
49223;SDS011;35050;51.316;5.994;2023-08-01T01:24:29;1.08;;;1.00;;
49223;SDS011;35050;51.316;5.994;2023-08-01T01:26:56;1.40;;;1.30;;
49223;SDS011;35050;51.316;5.994;2023-08-01T01:29:25;2.20;;;1.70;;
49223;SDS011;35050;51.316;5.994;2023-08-01T01:31:52;1.85;;;1.70;;
49223;SDS011;35050;51.316;5.994;2023-08-01T01:34:18;3.17;;;1.55;;
49223;SDS011;35050;51.316;5.994;2023-08-01T01:36:44;3.53;;;2.20;;
49223;SDS011;35050;51.316;5.994;2023-08-01T01:39:10;3.15;;;2.35;;
49223;SDS011;35050;51.316;5.994;2023-08-01T01:41:35;3.40;;;2.92;;
49223;SDS011;35050;51.316;5.994;2023-08-01T01:44:01;2.90;;;2.45;;
49223;SDS011;35050;51.316;5.994;2023-08-01T01:46:27;3.65;;;2.70;;
49223;SDS011;35050;51.316;5.994;2023-08-01T01:48:52;3.47;;;2.70;;
49223;SDS011;35050;51.316;5.994;2023-08-01T01:51:19;3.03;;;2.72;;
49223;SDS011;35050;51.316;5.994;2023-08-01T01:53:46;3.30;;;3.00;;
49223;SDS011;35050;51.316;5.994;2023-08-01T01:56:11;3.60;;;3.20;;
49223;SDS011;35050;51.316;5.994;2023-08-01T01:58:37;4.80;;;3.40;;
49223;SDS011;35050;51.316;5.994;2023-08-01T02:01:03;7.90;;;3.47;;
49223;SDS011;35050;51.316;5.994;2023-08-01T02:03:28;5.43;;;3.60;;
49223;SDS011;35050;51.316;5.994;2023-08-01T02:05:54;3.95;;;2.83;;
49223;SDS011;35050;51.316;5.994;2023-08-01T02:08:19;4.50;;;2.80;;
49223;SDS011;35050;51.316;5.994;2023-08-01T02:10:45;3.85;;;2.97;;
49223;SDS011;35050;51.316;5.994;2023-08-01T02:13:11;3.13;;;2.65;;
49223;SDS011;35050;51.316;5.994;2023-08-01T02:15:36;3.97;;;2.70;;
49223;SDS011;35050;51.316;5.994;2023-08-01T02:18:02;4.93;;;3.42;;
49223;SDS011;35050;51.316;5.994;2023-08-01T02:20:28;4.82;;;3.03;;
49223;SDS011;35050;51.316;5.994;2023-08-01T02:22:54;7.00;;;4.13;;
49223;SDS011;35050;51.316;5.994;2023-08-01T02:25:19;4.10;;;3.60;;
49223;SDS011;35050;51.316;5.994;2023-08-01T02:27:45;5.05;;;3.40;;
49223;SDS011;35050;51.316;5.994;2023-08-01T02:30:10;4.55;;;3.50;;
49223;SDS011;35050;51.316;5.994;2023-08-01T02:32:36;4.97;;;3.70;;
49223;SDS011;35050;51.316;5.994;2023-08-01T02:35:02;9.65;;;5.85;;
49223;SDS011;35050;51.316;5.994;2023-08-01T02:37:28;5.70;;;4.63;;
49223;SDS011;35050;51.316;5.994;2023-08-01T02:39:53;9.18;;;4.63;;
49223;SDS011;35050;51.316;5.994;2023-08-01T02:42:19;5.43;;;4.45;;
49223;SDS011;35050;51.316;5.994;2023-08-01T02:44:44;6.43;;;4.95;;
49223;SDS011;35050;51.316;5.994;2023-08-01T02:47:10;6.78;;;4.40;;
49223;SDS011;35050;51.316;5.994;2023-08-01T02:49:35;6.70;;;3.95;;
49223;SDS011;35050;51.316;5.994;2023-08-01T02:52:01;4.55;;;3.75;;
49223;SDS011;35050;51.316;5.994;2023-08-01T02:54:27;6.78;;;4.60;;
49223;SDS011;35050;51.316;5.994;2023-08-01T02:56:52;6.05;;;4.20;;
49223;SDS011;35050;51.316;5.994;2023-08-01T02:59:18;7.13;;;4.65;;
49223;SDS011;35050;51.316;5.994;2023-08-01T03:01:43;7.70;;;5.20;;
49223;SDS011;35050;51.316;5.994;2023-08-01T03:04:09;5.50;;;5.00;;
49223;SDS011;35050;51.316;5.994;2023-08-01T03:06:37;7.38;;;5.75;;
49223;SDS011;35050;51.316;5.994;2023-08-01T03:09:03;7.40;;;5.57;;
49223;SDS011;35050;51.316;5.994;2023-08-01T03:11:32;5.05;;;4.40;;
49223;SDS011;35050;51.316;5.994;2023-08-01T03:14:00;10.10;;;6.32;;
49223;SDS011;35050;51.316;5.994;2023-08-01T03:16:26;5.60;;;4.65;;
49223;SDS011;35050;51.316;5.994;2023-08-01T03:18:51;11.52;;;5.32;;
49223;SDS011;35050;51.316;5.994;2023-08-01T03:21:17;7.50;;;5.30;;
49223;SDS011;35050;51.316;5.994;2023-08-01T03:23:42;10.25;;;6.95;;
49223;SDS011;35050;51.316;5.994;2023-08-01T03:26:08;11.05;;;7.97;;
49223;SDS011;35050;51.316;5.994;2023-08-01T03:28:34;11.60;;;8.73;;
49223;SDS011;35050;51.316;5.994;2023-08-01T03:30:59;11.25;;;8.93;;
49223;SDS011;35050;51.316;5.994;2023-08-01T03:33:25;9.27;;;7.65;;
49223;SDS011;35050;51.316;5.994;2023-08-01T03:35:51;8.75;;;7.85;;
49223;SDS011;35050;51.316;5.994;2023-08-01T03:38:17;9.35;;;7.90;;
49223;SDS011;35050;51.316;5.994;2023-08-01T03:40:42;10.77;;;9.68;;
49223;SDS011;35050;51.316;5.994;2023-08-01T03:43:08;10.30;;;9.20;;
49223;SDS011;35050;51.316;5.994;2023-08-01T03:45:35;8.65;;;7.65;;
49223;SDS011;35050;51.316;5.994;2023-08-01T03:48:01;14.35;;;10.73;;
49223;SDS011;35050;51.316;5.994;2023-08-01T03:50:26;12.40;;;10.23;;
49223;SDS011;35050;51.316;5.994;2023-08-01T03:52:52;12.27;;;10.10;;
49223;SDS011;35050;51.316;5.994;2023-08-01T03:55:17;9.82;;;8.82;;
49223;SDS011;35050;51.316;5.994;2023-08-01T03:57:43;13.07;;;8.73;;
49223;SDS011;35050;51.316;5.994;2023-08-01T04:00:09;8.55;;;7.65;;
49223;SDS011;35050;51.316;5.994;2023-08-01T04:02:41;9.30;;;8.18;;
49223;SDS011;35050;51.316;5.994;2023-08-01T04:05:07;11.65;;;9.65;;
49223;SDS011;35050;51.316;5.994;2023-08-01T04:07:34;13.27;;;10.95;;
49223;SDS011;35050;51.316;5.994;2023-08-01T04:10:01;11.27;;;9.55;;
49223;SDS011;35050;51.316;5.994;2023-08-01T04:12:27;11.65;;;8.70;;
49223;SDS011;35050;51.316;5.994;2023-08-01T04:14:53;9.02;;;8.10;;
49223;SDS011;35050;51.316;5.994;2023-08-01T04:17:19;11.95;;;9.30;;
49223;SDS011;35050;51.316;5.994;2023-08-01T04:19:44;10.73;;;8.93;;
49223;SDS011;35050;51.316;5.994;2023-08-01T04:22:10;10.18;;;8.30;;
49223;SDS011;35050;51.316;5.994;2023-08-01T04:24:36;10.57;;;9.27;;
49223;SDS011;35050;51.316;5.994;2023-08-01T04:27:01;12.60;;;9.45;;
49223;SDS011;35050;51.316;5.994;2023-08-01T04:29:27;10.75;;;9.30;;
49223;SDS011;35050;51.316;5.994;2023-08-01T04:31:52;11.52;;;8.98;;
49223;SDS011;35050;51.316;5.994;2023-08-01T04:34:18;15.48;;;9.98;;
49223;SDS011;35050;51.316;5.994;2023-08-01T04:36:44;11.77;;;9.10;;
49223;SDS011;35050;51.316;5.994;2023-08-01T04:39:09;10.75;;;8.80;;
49223;SDS011;35050;51.316;5.994;2023-08-01T04:41:35;11.68;;;10.02;;
49223;SDS011;35050;51.316;5.994;2023-08-01T04:44:01;11.65;;;8.52;;
49223;SDS011;35050;51.316;5.994;2023-08-01T04:46:26;9.98;;;7.47;;
49223;SDS011;35050;51.316;5.994;2023-08-01T04:48:52;9.82;;;7.90;;
49223;SDS011;35050;51.316;5.994;2023-08-01T04:51:17;9.70;;;8.23;;
49223;SDS011;35050;51.316;5.994;2023-08-01T04:53:43;11.07;;;8.40;;
49223;SDS011;35050;51.316;5.994;2023-08-01T04:56:08;10.60;;;8.23;;
49223;SDS011;35050;51.316;5.994;2023-08-01T04:58:34;13.02;;;7.95;;
49223;SDS011;35050;51.316;5.994;2023-08-01T05:01:00;9.40;;;8.05;;
49223;SDS011;35050;51.316;5.994;2023-08-01T05:03:25;10.73;;;7.53;;
49223;SDS011;35050;51.316;5.994;2023-08-01T05:05:51;10.05;;;7.25;;
49223;SDS011;35050;51.316;5.994;2023-08-01T05:08:17;10.68;;;8.45;;
49223;SDS011;35050;51.316;5.994;2023-08-01T05:10:42;9.65;;;8.18;;
49223;SDS011;35050;51.316;5.994;2023-08-01T05:13:08;8.57;;;7.20;;
49223;SDS011;35050;51.316;5.994;2023-08-01T05:15:33;10.35;;;8.10;;
49223;SDS011;35050;51.316;5.994;2023-08-01T05:17:59;12.35;;;9.20;;
49223;SDS011;35050;51.316;5.994;2023-08-01T05:20:25;10.57;;;7.32;;
49223;SDS011;35050;51.316;5.994;2023-08-01T05:22:55;8.48;;;6.00;;
49223;SDS011;35050;51.316;5.994;2023-08-01T05:25:24;9.60;;;6.95;;
49223;SDS011;35050;51.316;5.994;2023-08-01T05:27:50;8.70;;;6.38;;
49223;SDS011;35050;51.316;5.994;2023-08-01T05:30:15;9.57;;;6.72;;
49223;SDS011;35050;51.316;5.994;2023-08-01T05:32:41;12.13;;;6.63;;
49223;SDS011;35050;51.316;5.994;2023-08-01T05:35:09;11.48;;;6.80;;
49223;SDS011;35050;51.316;5.994;2023-08-01T05:37:35;11.93;;;7.28;;
49223;SDS011;35050;51.316;5.994;2023-08-01T05:40:02;7.97;;;5.88;;
49223;SDS011;35050;51.316;5.994;2023-08-01T05:42:28;8.85;;;6.32;;
49223;SDS011;35050;51.316;5.994;2023-08-01T05:44:54;9.07;;;5.68;;
49223;SDS011;35050;51.316;5.994;2023-08-01T05:47:20;9.48;;;5.80;;
49223;SDS011;35050;51.316;5.994;2023-08-01T05:49:47;11.05;;;8.23;;
49223;SDS011;35050;51.316;5.994;2023-08-01T05:52:13;8.98;;;6.32;;
49223;SDS011;35050;51.316;5.994;2023-08-01T05:54:39;9.35;;;5.90;;
49223;SDS011;35050;51.316;5.994;2023-08-01T05:57:05;9.23;;;6.13;;
49223;SDS011;35050;51.316;5.994;2023-08-01T05:59:31;9.75;;;6.65;;
49223;SDS011;35050;51.316;5.994;2023-08-01T06:01:56;12.20;;;7.35;;
49223;SDS011;35050;51.316;5.994;2023-08-01T06:04:22;11.43;;;7.65;;
49223;SDS011;35050;51.316;5.994;2023-08-01T06:06:48;12.68;;;8.45;;
49223;SDS011;35050;51.316;5.994;2023-08-01T06:09:14;11.82;;;7.85;;
49223;SDS011;35050;51.316;5.994;2023-08-01T06:11:39;9.93;;;6.78;;
49223;SDS011;35050;51.316;5.994;2023-08-01T06:14:05;11.90;;;7.63;;
49223;SDS011;35050;51.316;5.994;2023-08-01T06:16:31;11.95;;;7.68;;
49223;SDS011;35050;51.316;5.994;2023-08-01T06:18:56;10.38;;;6.88;;
49223;SDS011;35050;51.316;5.994;2023-08-01T06:21:22;9.35;;;7.15;;
49223;SDS011;35050;51.316;5.994;2023-08-01T06:23:48;9.38;;;7.47;;
49223;SDS011;35050;51.316;5.994;2023-08-01T06:26:14;9.27;;;6.50;;
49223;SDS011;35050;51.316;5.994;2023-08-01T06:28:40;9.82;;;7.05;;
49223;SDS011;35050;51.316;5.994;2023-08-01T06:31:06;10.55;;;7.13;;
49223;SDS011;35050;51.316;5.994;2023-08-01T06:33:32;11.38;;;6.90;;
49223;SDS011;35050;51.316;5.994;2023-08-01T06:35:57;10.02;;;7.15;;
49223;SDS011;35050;51.316;5.994;2023-08-01T06:38:23;10.20;;;6.95;;
49223;SDS011;35050;51.316;5.994;2023-08-01T06:40:49;9.45;;;6.75;;
49223;SDS011;35050;51.316;5.994;2023-08-01T06:43:14;9.70;;;6.78;;
49223;SDS011;35050;51.316;5.994;2023-08-01T06:45:40;10.43;;;7.32;;
49223;SDS011;35050;51.316;5.994;2023-08-01T06:48:06;13.32;;;7.28;;
49223;SDS011;35050;51.316;5.994;2023-08-01T06:50:31;10.40;;;7.53;;
49223;SDS011;35050;51.316;5.994;2023-08-01T06:52:57;11.73;;;8.15;;
49223;SDS011;35050;51.316;5.994;2023-08-01T06:55:22;9.63;;;7.32;;
49223;SDS011;35050;51.316;5.994;2023-08-01T06:57:48;10.02;;;6.90;;
49223;SDS011;35050;51.316;5.994;2023-08-01T07:00:14;14.05;;;8.80;;
49223;SDS011;35050;51.316;5.994;2023-08-01T07:02:39;10.27;;;7.35;;
49223;SDS011;35050;51.316;5.994;2023-08-01T07:05:05;11.32;;;6.90;;
49223;SDS011;35050;51.316;5.994;2023-08-01T07:07:31;9.40;;;6.40;;
49223;SDS011;35050;51.316;5.994;2023-08-01T07:09:56;12.07;;;7.88;;
49223;SDS011;35050;51.316;5.994;2023-08-01T07:12:22;8.85;;;7.20;;
49223;SDS011;35050;51.316;5.994;2023-08-01T07:14:48;9.70;;;5.72;;
49223;SDS011;35050;51.316;5.994;2023-08-01T07:17:13;10.30;;;6.47;;
49223;SDS011;35050;51.316;5.994;2023-08-01T07:19:39;7.05;;;5.80;;
49223;SDS011;35050;51.316;5.994;2023-08-01T07:22:05;8.18;;;6.07;;
49223;SDS011;35050;51.316;5.994;2023-08-01T07:24:30;9.02;;;6.13;;
49223;SDS011;35050;51.316;5.994;2023-08-01T07:26:56;12.25;;;6.90;;
49223;SDS011;35050;51.316;5.994;2023-08-01T07:29:21;15.85;;;8.32;;
49223;SDS011;35050;51.316;5.994;2023-08-01T07:31:47;8.43;;;6.05;;
49223;SDS011;35050;51.316;5.994;2023-08-01T07:34:13;10.55;;;5.93;;
49223;SDS011;35050;51.316;5.994;2023-08-01T07:36:38;8.20;;;5.47;;
49223;SDS011;35050;51.316;5.994;2023-08-01T07:39:04;12.55;;;6.13;;
49223;SDS011;35050;51.316;5.994;2023-08-01T07:41:30;9.85;;;6.22;;
49223;SDS011;35050;51.316;5.994;2023-08-01T07:43:55;12.25;;;6.22;;
49223;SDS011;35050;51.316;5.994;2023-08-01T07:46:21;7.85;;;5.60;;
49223;SDS011;35050;51.316;5.994;2023-08-01T07:48:46;9.15;;;4.93;;
49223;SDS011;35050;51.316;5.994;2023-08-01T07:51:14;12.07;;;6.05;;
49223;SDS011;35050;51.316;5.994;2023-08-01T07:53:39;8.25;;;5.40;;
49223;SDS011;35050;51.316;5.994;2023-08-01T07:56:05;7.82;;;5.13;;
49223;SDS011;35050;51.316;5.994;2023-08-01T07:58:33;9.07;;;5.10;;
49223;SDS011;35050;51.316;5.994;2023-08-01T08:01:02;9.18;;;4.80;;
49223;SDS011;35050;51.316;5.994;2023-08-01T08:03:29;10.55;;;5.55;;
49223;SDS011;35050;51.316;5.994;2023-08-01T08:05:55;9.18;;;5.13;;
49223;SDS011;35050;51.316;5.994;2023-08-01T08:08:21;6.63;;;3.83;;
49223;SDS011;35050;51.316;5.994;2023-08-01T08:10:46;6.78;;;4.03;;
49223;SDS011;35050;51.316;5.994;2023-08-01T08:13:12;5.35;;;4.13;;
49223;SDS011;35050;51.316;5.994;2023-08-01T08:15:37;9.68;;;4.72;;
49223;SDS011;35050;51.316;5.994;2023-08-01T08:18:03;7.28;;;4.00;;
49223;SDS011;35050;51.316;5.994;2023-08-01T08:20:30;10.40;;;4.63;;
49223;SDS011;35050;51.316;5.994;2023-08-01T08:22:57;5.88;;;3.38;;
49223;SDS011;35050;51.316;5.994;2023-08-01T08:25:22;7.07;;;4.15;;
49223;SDS011;35050;51.316;5.994;2023-08-01T08:27:51;6.68;;;3.67;;
49223;SDS011;35050;51.316;5.994;2023-08-01T08:30:16;7.57;;;3.67;;
49223;SDS011;35050;51.316;5.994;2023-08-01T08:32:42;10.00;;;4.72;;
49223;SDS011;35050;51.316;5.994;2023-08-01T08:35:08;12.38;;;4.30;;
49223;SDS011;35050;51.316;5.994;2023-08-01T08:37:33;6.93;;;4.20;;
49223;SDS011;35050;51.316;5.994;2023-08-01T08:39:59;5.97;;;3.95;;
49223;SDS011;35050;51.316;5.994;2023-08-01T08:42:25;8.77;;;4.57;;
49223;SDS011;35050;51.316;5.994;2023-08-01T08:44:53;6.85;;;4.20;;
49223;SDS011;35050;51.316;5.994;2023-08-01T08:47:21;6.95;;;3.70;;
49223;SDS011;35050;51.316;5.994;2023-08-01T08:49:50;5.40;;;3.67;;
49223;SDS011;35050;51.316;5.994;2023-08-01T08:52:16;6.50;;;3.40;;
49223;SDS011;35050;51.316;5.994;2023-08-01T08:54:43;4.82;;;3.17;;
49223;SDS011;35050;51.316;5.994;2023-08-01T08:57:09;5.88;;;3.75;;
49223;SDS011;35050;51.316;5.994;2023-08-01T08:59:35;5.20;;;3.78;;
49223;SDS011;35050;51.316;5.994;2023-08-01T09:02:02;6.70;;;4.03;;
49223;SDS011;35050;51.316;5.994;2023-08-01T09:04:29;6.28;;;3.70;;
49223;SDS011;35050;51.316;5.994;2023-08-01T09:06:58;6.60;;;3.75;;
49223;SDS011;35050;51.316;5.994;2023-08-01T09:09:28;6.80;;;4.07;;
49223;SDS011;35050;51.316;5.994;2023-08-01T09:11:54;6.88;;;3.40;;
49223;SDS011;35050;51.316;5.994;2023-08-01T09:14:23;9.07;;;4.65;;
49223;SDS011;35050;51.316;5.994;2023-08-01T09:16:48;7.25;;;3.65;;
49223;SDS011;35050;51.316;5.994;2023-08-01T09:19:23;5.25;;;3.50;;
49223;SDS011;35050;51.316;5.994;2023-08-01T09:21:50;3.83;;;3.20;;
49223;SDS011;35050;51.316;5.994;2023-08-01T09:24:17;6.22;;;3.15;;
49223;SDS011;35050;51.316;5.994;2023-08-01T09:26:43;5.50;;;3.42;;
49223;SDS011;35050;51.316;5.994;2023-08-01T09:29:10;8.82;;;3.35;;
49223;SDS011;35050;51.316;5.994;2023-08-01T09:31:37;9.45;;;3.78;;
49223;SDS011;35050;51.316;5.994;2023-08-01T09:34:17;8.82;;;3.78;;
49223;SDS011;35050;51.316;5.994;2023-08-01T09:36:47;5.05;;;3.70;;
49223;SDS011;35050;51.316;5.994;2023-08-01T09:39:18;6.63;;;3.60;;
49223;SDS011;35050;51.316;5.994;2023-08-01T09:41:45;4.40;;;3.03;;
49223;SDS011;35050;51.316;5.994;2023-08-01T09:44:11;4.15;;;2.72;;
49223;SDS011;35050;51.316;5.994;2023-08-01T09:46:40;4.57;;;3.00;;
49223;SDS011;35050;51.316;5.994;2023-08-01T09:49:09;3.13;;;2.63;;
49223;SDS011;35050;51.316;5.994;2023-08-01T09:51:45;5.30;;;3.03;;
49223;SDS011;35050;51.316;5.994;2023-08-01T09:54:16;5.38;;;3.42;;
49223;SDS011;35050;51.316;5.994;2023-08-01T09:56:46;5.88;;;3.38;;
49223;SDS011;35050;51.316;5.994;2023-08-01T09:59:16;3.75;;;2.97;;
49223;SDS011;35050;51.316;5.994;2023-08-01T10:01:48;4.82;;;3.13;;
49223;SDS011;35050;51.316;5.994;2023-08-01T10:04:21;6.93;;;3.83;;
49223;SDS011;35050;51.316;5.994;2023-08-01T10:06:54;6.00;;;3.58;;
49223;SDS011;35050;51.316;5.994;2023-08-01T10:09:24;5.22;;;3.15;;
49223;SDS011;35050;51.316;5.994;2023-08-01T10:11:50;5.18;;;3.40;;
49223;SDS011;35050;51.316;5.994;2023-08-01T10:14:17;5.80;;;3.03;;
49223;SDS011;35050;51.316;5.994;2023-08-01T10:16:44;4.32;;;2.72;;
49223;SDS011;35050;51.316;5.994;2023-08-01T10:19:12;4.93;;;2.85;;
49223;SDS011;35050;51.316;5.994;2023-08-01T10:21:38;3.55;;;2.40;;
49223;SDS011;35050;51.316;5.994;2023-08-01T10:24:06;5.88;;;3.08;;
49223;SDS011;35050;51.316;5.994;2023-08-01T10:26:33;5.70;;;3.05;;
49223;SDS011;35050;51.316;5.994;2023-08-01T10:29:00;5.57;;;3.20;;
49223;SDS011;35050;51.316;5.994;2023-08-01T10:31:27;5.47;;;2.63;;
49223;SDS011;35050;51.316;5.994;2023-08-01T10:34:03;7.53;;;3.25;;
49223;SDS011;35050;51.316;5.994;2023-08-01T10:36:29;4.05;;;2.30;;
49223;SDS011;35050;51.316;5.994;2023-08-01T10:38:58;6.50;;;2.30;;
49223;SDS011;35050;51.316;5.994;2023-08-01T10:41:26;4.00;;;2.28;;
49223;SDS011;35050;51.316;5.994;2023-08-01T10:44:08;5.32;;;2.40;;
49223;SDS011;35050;51.316;5.994;2023-08-01T10:49:16;3.58;;;1.98;;
49223;SDS011;35050;51.316;5.994;2023-08-01T10:51:43;4.75;;;2.10;;
49223;SDS011;35050;51.316;5.994;2023-08-01T10:56:49;3.42;;;1.48;;
49223;SDS011;35050;51.316;5.994;2023-08-01T10:59:18;3.08;;;1.70;;
49223;SDS011;35050;51.316;5.994;2023-08-01T11:01:47;2.45;;;1.65;;
49223;SDS011;35050;51.316;5.994;2023-08-01T11:04:15;5.32;;;1.90;;
49223;SDS011;35050;51.316;5.994;2023-08-01T11:06:43;3.65;;;1.75;;
49223;SDS011;35050;51.316;5.994;2023-08-01T11:09:19;2.45;;;1.27;;
49223;SDS011;35050;51.316;5.994;2023-08-01T11:11:50;4.15;;;1.80;;
49223;SDS011;35050;51.316;5.994;2023-08-01T11:14:21;2.42;;;1.45;;
49223;SDS011;35050;51.316;5.994;2023-08-01T11:16:49;3.80;;;1.38;;
49223;SDS011;35050;51.316;5.994;2023-08-01T11:19:18;4.53;;;1.50;;
49223;SDS011;35050;51.316;5.994;2023-08-01T11:21:52;1.90;;;1.30;;
49223;SDS011;35050;51.316;5.994;2023-08-01T11:24:21;3.40;;;1.63;;
49223;SDS011;35050;51.316;5.994;2023-08-01T11:26:48;2.97;;;1.48;;
49223;SDS011;35050;51.316;5.994;2023-08-01T11:29:15;4.30;;;2.10;;
49223;SDS011;35050;51.316;5.994;2023-08-01T11:31:41;2.50;;;1.55;;
49223;SDS011;35050;51.316;5.994;2023-08-01T11:34:17;3.97;;;1.60;;
49223;SDS011;35050;51.316;5.994;2023-08-01T11:36:43;2.80;;;1.65;;
49223;SDS011;35050;51.316;5.994;2023-08-01T11:39:11;3.20;;;1.55;;
49223;SDS011;35050;51.316;5.994;2023-08-01T11:41:37;4.82;;;2.30;;
49223;SDS011;35050;51.316;5.994;2023-08-01T11:44:03;6.35;;;2.78;;
49223;SDS011;35050;51.316;5.994;2023-08-01T11:46:33;4.10;;;1.90;;
49223;SDS011;35050;51.316;5.994;2023-08-01T11:49:00;2.78;;;1.52;;
49223;SDS011;35050;51.316;5.994;2023-08-01T11:51:27;5.28;;;2.05;;
49223;SDS011;35050;51.316;5.994;2023-08-01T11:54:00;3.47;;;1.50;;
49223;SDS011;35050;51.316;5.994;2023-08-01T11:56:26;2.28;;;1.75;;
49223;SDS011;35050;51.316;5.994;2023-08-01T11:58:52;4.03;;;1.85;;
49223;SDS011;35050;51.316;5.994;2023-08-01T12:01:18;5.25;;;1.95;;
49223;SDS011;35050;51.316;5.994;2023-08-01T12:03:48;7.95;;;2.38;;
49223;SDS011;35050;51.316;5.994;2023-08-01T12:06:15;4.72;;;2.30;;
49223;SDS011;35050;51.316;5.994;2023-08-01T12:08:42;3.53;;;1.65;;
49223;SDS011;35050;51.316;5.994;2023-08-01T12:13:46;4.28;;;2.20;;
49223;SDS011;35050;51.316;5.994;2023-08-01T12:16:13;4.00;;;1.63;;
49223;SDS011;35050;51.316;5.994;2023-08-01T12:18:42;3.10;;;1.48;;
49223;SDS011;35050;51.316;5.994;2023-08-01T12:21:09;3.92;;;1.88;;
49223;SDS011;35050;51.316;5.994;2023-08-01T12:23:35;5.07;;;2.03;;
49223;SDS011;35050;51.316;5.994;2023-08-01T12:26:01;4.47;;;1.92;;
49223;SDS011;35050;51.316;5.994;2023-08-01T12:28:26;7.15;;;2.10;;
49223;SDS011;35050;51.316;5.994;2023-08-01T12:30:52;6.15;;;2.08;;
49223;SDS011;35050;51.316;5.994;2023-08-01T12:33:18;2.72;;;1.77;;
49223;SDS011;35050;51.316;5.994;2023-08-01T12:35:44;2.92;;;1.45;;
49223;SDS011;35050;51.316;5.994;2023-08-01T12:38:09;3.50;;;1.52;;
49223;SDS011;35050;51.316;5.994;2023-08-01T12:40:35;2.72;;;1.45;;
49223;SDS011;35050;51.316;5.994;2023-08-01T12:43:01;2.35;;;1.48;;
49223;SDS011;35050;51.316;5.994;2023-08-01T12:45:26;4.15;;;1.63;;
49223;SDS011;35050;51.316;5.994;2023-08-01T12:47:52;3.60;;;1.65;;
49223;SDS011;35050;51.316;5.994;2023-08-01T12:50:17;4.00;;;1.70;;
49223;SDS011;35050;51.316;5.994;2023-08-01T12:52:43;3.83;;;1.83;;
49223;SDS011;35050;51.316;5.994;2023-08-01T12:55:09;4.88;;;1.80;;
49223;SDS011;35050;51.316;5.994;2023-08-01T12:57:34;3.78;;;1.63;;
49223;SDS011;35050;51.316;5.994;2023-08-01T13:00:00;2.60;;;1.17;;
49223;SDS011;35050;51.316;5.994;2023-08-01T13:02:28;2.58;;;1.45;;
49223;SDS011;35050;51.316;5.994;2023-08-01T13:04:54;4.03;;;1.75;;
49223;SDS011;35050;51.316;5.994;2023-08-01T13:07:20;3.63;;;1.55;;
49223;SDS011;35050;51.316;5.994;2023-08-01T13:09:45;3.28;;;1.67;;
49223;SDS011;35050;51.316;5.994;2023-08-01T13:12:11;5.00;;;1.77;;
49223;SDS011;35050;51.316;5.994;2023-08-01T13:14:37;4.13;;;1.60;;
49223;SDS011;35050;51.316;5.994;2023-08-01T13:17:03;3.53;;;1.60;;
49223;SDS011;35050;51.316;5.994;2023-08-01T13:19:28;6.07;;;2.35;;
49223;SDS011;35050;51.316;5.994;2023-08-01T13:21:54;2.63;;;1.85;;
49223;SDS011;35050;51.316;5.994;2023-08-01T13:24:20;4.15;;;1.75;;
49223;SDS011;35050;51.316;5.994;2023-08-01T13:26:46;5.57;;;1.80;;
49223;SDS011;35050;51.316;5.994;2023-08-01T13:29:11;2.90;;;1.35;;
49223;SDS011;35050;51.316;5.994;2023-08-01T13:31:37;4.00;;;1.50;;
49223;SDS011;35050;51.316;5.994;2023-08-01T13:34:03;3.58;;;1.65;;
49223;SDS011;35050;51.316;5.994;2023-08-01T13:36:28;4.22;;;1.77;;
49223;SDS011;35050;51.316;5.994;2023-08-01T13:38:54;6.45;;;1.80;;
49223;SDS011;35050;51.316;5.994;2023-08-01T13:41:19;5.13;;;1.80;;
49223;SDS011;35050;51.316;5.994;2023-08-01T13:43:45;6.00;;;1.90;;
49223;SDS011;35050;51.316;5.994;2023-08-01T13:46:17;5.47;;;1.80;;
49223;SDS011;35050;51.316;5.994;2023-08-01T13:48:44;4.05;;;1.83;;
49223;SDS011;35050;51.316;5.994;2023-08-01T13:51:11;3.67;;;1.40;;
49223;SDS011;35050;51.316;5.994;2023-08-01T13:53:38;2.47;;;1.70;;
49223;SDS011;35050;51.316;5.994;2023-08-01T13:56:09;3.35;;;1.60;;
49223;SDS011;35050;51.316;5.994;2023-08-01T13:58:35;6.38;;;1.60;;
49223;SDS011;35050;51.316;5.994;2023-08-01T14:01:07;3.88;;;1.48;;
49223;SDS011;35050;51.316;5.994;2023-08-01T14:03:34;5.28;;;1.45;;
49223;SDS011;35050;51.316;5.994;2023-08-01T14:06:07;3.58;;;1.40;;
49223;SDS011;35050;51.316;5.994;2023-08-01T14:08:34;2.17;;;1.25;;
49223;SDS011;35050;51.316;5.994;2023-08-01T14:11:01;2.47;;;1.30;;
49223;SDS011;35050;51.316;5.994;2023-08-01T14:13:28;5.32;;;1.45;;
49223;SDS011;35050;51.316;5.994;2023-08-01T14:15:54;2.58;;;1.45;;
49223;SDS011;35050;51.316;5.994;2023-08-01T14:18:19;4.57;;;1.42;;
49223;SDS011;35050;51.316;5.994;2023-08-01T14:20:45;4.40;;;1.45;;
49223;SDS011;35050;51.316;5.994;2023-08-01T14:23:11;3.70;;;1.65;;
49223;SDS011;35050;51.316;5.994;2023-08-01T14:25:37;3.83;;;1.40;;
49223;SDS011;35050;51.316;5.994;2023-08-01T14:28:03;3.25;;;1.50;;
49223;SDS011;35050;51.316;5.994;2023-08-01T14:30:29;4.45;;;1.40;;
49223;SDS011;35050;51.316;5.994;2023-08-01T14:33:01;2.33;;;1.27;;
49223;SDS011;35050;51.316;5.994;2023-08-01T14:35:28;2.28;;;1.23;;
49223;SDS011;35050;51.316;5.994;2023-08-01T14:37:54;2.00;;;0.93;;
49223;SDS011;35050;51.316;5.994;2023-08-01T14:40:23;2.53;;;1.20;;
49223;SDS011;35050;51.316;5.994;2023-08-01T14:42:49;3.45;;;1.10;;
49223;SDS011;35050;51.316;5.994;2023-08-01T14:45:15;2.85;;;1.40;;
49223;SDS011;35050;51.316;5.994;2023-08-01T14:47:41;1.45;;;0.98;;
49223;SDS011;35050;51.316;5.994;2023-08-01T14:50:08;4.10;;;1.30;;
49223;SDS011;35050;51.316;5.994;2023-08-01T14:52:34;3.42;;;1.40;;